createdAt,value
2022-10-22T00:02:23.594Z,10.72
2022-10-22T00:05:30.121Z,10.73
2022-10-22T00:08:36.412Z,10.76
2022-10-22T00:11:43.163Z,10.78
2022-10-22T00:14:52.104Z,10.78
2022-10-22T00:17:58.661Z,10.77
2022-10-22T00:21:04.395Z,10.77
2022-10-22T00:24:11.179Z,10.77
2022-10-22T00:27:17.234Z,10.72
2022-10-22T00:30:26.977Z,10.72
2022-10-22T00:33:33.649Z,10.72
2022-10-22T00:36:40.538Z,10.74
2022-10-22T00:39:46.319Z,10.75
2022-10-22T00:42:52.986Z,10.76
2022-10-22T00:46:03.515Z,10.77
2022-10-22T00:49:10.259Z,10.69
2022-10-22T00:52:16.858Z,10.76
2022-10-22T00:55:24.656Z,10.76
2022-10-22T00:58:33.232Z,10.76
2022-10-22T01:01:43.637Z,10.75
2022-10-22T01:04:49.259Z,10.75
2022-10-22T01:07:57.155Z,10.73
2022-10-22T01:11:14.822Z,10.71
2022-10-22T01:14:28.912Z,10.69
2022-10-22T01:17:43.636Z,10.65
2022-10-22T01:21:03.299Z,10.64
2022-10-22T01:24:31.127Z,10.60
2022-10-22T01:27:51.818Z,10.56
2022-10-22T01:31:03.606Z,10.55
2022-10-22T01:34:12.821Z,10.55
2022-10-22T01:37:20.993Z,10.51
2022-10-22T01:40:28.539Z,10.52
2022-10-22T01:43:34.327Z,10.53
2022-10-22T01:46:43.687Z,10.52
2022-10-22T01:50:07.508Z,10.49
2022-10-22T01:53:24.472Z,10.49
2022-10-22T01:56:51.882Z,10.48
2022-10-22T02:00:06.311Z,10.47
2022-10-22T02:03:23.714Z,10.48
2022-10-22T02:06:33.388Z,10.47
2022-10-22T02:09:39.773Z,10.49
2022-10-22T02:12:48.463Z,10.46
2022-10-22T02:15:55.436Z,10.45
2022-10-22T02:19:09.066Z,10.43
2022-10-22T02:22:14.805Z,10.43
2022-10-22T02:25:21.329Z,10.41
2022-10-22T02:28:32.466Z,10.40
2022-10-22T02:31:43.182Z,10.36
2022-10-22T02:34:54.421Z,10.30
2022-10-22T02:38:03.865Z,10.28
2022-10-22T02:41:09.927Z,10.27
2022-10-22T02:44:16.379Z,10.23
2022-10-22T02:47:22.002Z,10.19
2022-10-22T02:50:31.290Z,10.16
2022-10-22T02:53:36.937Z,10.12
2022-10-22T02:56:43.396Z,10.11
2022-10-22T02:59:49.051Z,10.08
2022-10-22T03:02:55.447Z,10.04
2022-10-22T03:06:03.980Z,10.02
2022-10-22T03:09:10.462Z,9.97
2022-10-22T03:12:16.081Z,9.93
2022-10-22T03:15:22.893Z,9.91
2022-10-22T03:18:28.540Z,9.90
2022-10-22T03:21:40.896Z,9.92
2022-10-22T03:24:49.477Z,9.91
2022-10-22T03:27:58.966Z,9.92
2022-10-22T03:31:06.788Z,9.94
2022-10-22T03:34:13.715Z,9.93
2022-10-22T03:37:22.690Z,9.95
2022-10-22T03:40:29.260Z,9.94
2022-10-22T03:43:35.029Z,9.94
2022-10-22T03:46:41.619Z,9.95
2022-10-22T03:49:47.212Z,9.97
2022-10-22T03:52:58.314Z,9.98
2022-10-22T03:56:03.980Z,9.99
2022-10-22T03:59:10.587Z,9.98
2022-10-22T04:02:17.621Z,9.99
2022-10-22T04:05:27.097Z,10.00
2022-10-22T04:08:35.531Z,10.03
2022-10-22T04:11:42.244Z,10.07
2022-10-22T04:14:47.877Z,10.10
2022-10-22T04:17:54.569Z,10.14
2022-10-22T04:21:00.279Z,10.19
2022-10-22T04:24:11.998Z,10.20
2022-10-22T04:27:17.657Z,10.22
2022-10-22T04:30:24.131Z,10.21
2022-10-22T04:33:29.937Z,10.18
2022-10-22T04:36:37.139Z,10.19
2022-10-22T04:39:47.615Z,10.19
2022-10-22T04:42:54.219Z,10.16
2022-10-22T04:46:03.485Z,10.17
2022-10-22T04:49:09.975Z,10.18
2022-10-22T04:52:15.575Z,10.18
2022-10-22T04:55:24.860Z,10.18
2022-10-22T04:58:30.499Z,10.17
2022-10-22T05:01:41.722Z,10.15
2022-10-22T05:04:48.689Z,10.16
2022-10-22T05:07:55.470Z,10.20
2022-10-22T05:11:04.029Z,10.15
2022-10-22T05:14:11.045Z,10.16
2022-10-22T05:17:16.681Z,10.11
2022-10-22T05:20:23.362Z,10.10
2022-10-22T05:23:28.985Z,10.11
2022-10-22T05:26:38.369Z,10.08
2022-10-22T05:29:44.588Z,10.05
2022-10-22T05:32:52.577Z,10.06
2022-10-22T05:35:58.446Z,10.07
2022-10-22T05:39:07.861Z,10.07
2022-10-22T05:42:16.223Z,10.07
2022-10-22T05:45:22.759Z,10.11
2022-10-22T05:48:28.412Z,10.15
2022-10-22T05:51:37.663Z,10.18
2022-10-22T05:54:43.561Z,10.21
2022-10-22T05:57:52.816Z,10.25
2022-10-22T06:00:58.473Z,10.25
2022-10-22T06:04:09.466Z,10.28
2022-10-22T06:07:18.238Z,10.31
2022-10-22T06:10:25.462Z,10.30
2022-10-22T06:13:33.813Z,10.31
2022-10-22T06:16:40.868Z,10.33
2022-10-22T06:19:46.449Z,10.38
2022-10-22T06:22:52.893Z,10.39
2022-10-22T06:26:04.647Z,10.45
2022-10-22T06:29:14.248Z,10.49
2022-10-22T06:32:19.820Z,10.64
2022-10-22T06:35:26.951Z,10.73
2022-10-22T06:38:32.532Z,10.80
2022-10-22T06:41:38.969Z,10.83
2022-10-22T06:44:47.620Z,10.86
2022-10-22T06:47:54.112Z,10.89
2022-10-22T06:51:04.095Z,10.95
2022-10-22T06:54:11.089Z,11.01
2022-10-22T06:57:16.689Z,11.10
2022-10-22T07:00:26.223Z,11.20
2022-10-22T07:03:31.846Z,11.27
2022-10-22T07:06:43.836Z,11.35
2022-10-22T07:09:51.352Z,11.45
2022-10-22T07:12:57.964Z,11.55
2022-10-22T07:16:07.081Z,11.70
2022-10-22T07:19:13.524Z,11.74
2022-10-22T07:22:19.103Z,11.83
2022-10-22T07:25:25.585Z,11.87
2022-10-22T07:28:32.698Z,11.92
2022-10-22T07:31:41.958Z,11.97
2022-10-22T07:34:47.562Z,12.04
2022-10-22T07:37:54.107Z,12.10
2022-10-22T07:40:59.686Z,12.10
2022-10-22T07:44:07.730Z,12.17
2022-10-22T07:47:16.132Z,12.28
2022-10-22T07:50:22.755Z,12.38
2022-10-22T07:53:28.715Z,12.43
2022-10-22T07:56:35.172Z,12.45
2022-10-22T07:59:40.798Z,12.43
2022-10-22T08:02:50.138Z,12.48
2022-10-22T08:05:56.868Z,12.61
2022-10-22T08:09:03.534Z,12.62
2022-10-22T08:12:10.190Z,12.74
2022-10-22T08:15:16.663Z,12.92
2022-10-22T08:18:25.049Z,13.05
2022-10-22T08:21:31.481Z,13.06
2022-10-22T08:24:37.473Z,13.06
2022-10-22T08:27:44.813Z,13.03
2022-10-22T08:30:50.690Z,13.08
2022-10-22T08:33:59.985Z,13.12
2022-10-22T08:37:08.650Z,13.17
2022-10-22T08:40:24.073Z,13.21
2022-10-22T08:43:48.576Z,13.23
2022-10-22T08:47:18.608Z,13.22
2022-10-22T08:50:34.082Z,13.24
2022-10-22T08:53:48.489Z,13.34
2022-10-22T08:57:04.132Z,13.34
2022-10-22T09:00:17.546Z,13.38
2022-10-22T09:03:38.162Z,13.44
2022-10-22T09:06:49.580Z,13.50
2022-10-22T09:10:04.086Z,13.49
2022-10-22T09:13:12.753Z,13.53
2022-10-22T09:16:21.386Z,13.57
2022-10-22T09:19:36.152Z,13.64
2022-10-22T09:22:53.127Z,13.55
2022-10-22T09:26:00.872Z,13.50
2022-10-22T09:29:10.634Z,13.47
2022-10-22T09:32:17.543Z,13.40
2022-10-22T09:35:27.508Z,13.36
2022-10-22T09:38:42.227Z,13.28
2022-10-22T09:41:48.712Z,13.34
2022-10-22T09:44:57.805Z,13.34
2022-10-22T09:48:14.790Z,13.44
2022-10-22T09:51:23.906Z,13.47
2022-10-22T09:54:42.082Z,13.48
2022-10-22T09:57:56.285Z,13.45
2022-10-22T10:01:06.560Z,13.35
2022-10-22T10:04:15.685Z,13.31
2022-10-22T10:07:23.003Z,13.28
2022-10-22T10:10:40.137Z,13.27
2022-10-22T10:13:54.208Z,13.26
2022-10-22T10:17:07.603Z,13.24
2022-10-22T10:20:27.208Z,13.17
2022-10-22T10:23:39.547Z,13.21
2022-10-22T10:26:57.841Z,13.26
2022-10-22T10:30:08.734Z,13.32
2022-10-22T10:33:26.337Z,13.43
2022-10-22T10:36:40.972Z,13.48
2022-10-22T10:40:06.358Z,13.53
2022-10-22T10:43:20.271Z,13.56
2022-10-22T10:46:37.153Z,13.72
2022-10-22T10:49:46.576Z,13.78
2022-10-22T10:53:00.767Z,13.82
2022-10-22T10:56:22.522Z,13.82
2022-10-22T10:59:48.545Z,13.81
2022-10-22T11:03:20.964Z,13.87
2022-10-22T11:06:28.522Z,13.92
2022-10-22T11:09:39.947Z,13.98
2022-10-22T11:12:49.076Z,13.94
2022-10-22T11:16:06.787Z,13.88
2022-10-22T11:19:23.013Z,13.91
2022-10-22T11:23:13.115Z,13.97
2022-10-22T11:26:18.732Z,14.05
2022-10-22T11:29:30.729Z,14.05
2022-10-22T11:32:43.161Z,14.01
2022-10-22T11:35:51.980Z,14.02
2022-10-22T11:38:57.727Z,13.93
2022-10-22T11:42:07.494Z,13.86
2022-10-22T11:45:32.128Z,13.87
2022-10-22T11:48:41.942Z,13.90
2022-10-22T11:51:49.222Z,13.85
2022-10-22T11:55:00.814Z,13.88
2022-10-22T11:58:30.820Z,13.93
2022-10-22T12:01:45.872Z,13.92
2022-10-22T12:04:54.483Z,13.92
2022-10-22T12:08:04.097Z,13.86
2022-10-22T12:11:24.015Z,13.84
2022-10-22T12:14:37.259Z,13.75
2022-10-22T12:17:45.641Z,13.65
2022-10-22T12:20:58.976Z,13.44
2022-10-22T12:24:06.591Z,13.38
2022-10-22T12:27:22.683Z,13.35
2022-10-22T12:30:30.872Z,13.36
2022-10-22T12:33:37.304Z,13.30
2022-10-22T12:36:45.722Z,13.27
2022-10-22T12:39:52.136Z,13.22
2022-10-22T12:43:00.444Z,13.23
2022-10-22T12:46:14.610Z,13.18
2022-10-22T12:49:25.484Z,13.14
2022-10-22T12:52:35.590Z,13.08
2022-10-22T12:55:42.214Z,13.08
2022-10-22T12:58:54.396Z,13.08
2022-10-22T13:02:00.307Z,13.12
2022-10-22T13:05:27.753Z,13.11
2022-10-22T13:08:37.546Z,13.11
2022-10-22T13:11:52.313Z,13.12
2022-10-22T13:14:57.973Z,13.16
2022-10-22T13:18:06.706Z,13.07
2022-10-22T13:21:26.586Z,13.09
2022-10-22T13:24:39.294Z,13.08
2022-10-22T13:27:46.861Z,13.03
2022-10-22T13:30:58.452Z,12.93
2022-10-22T13:34:11.780Z,12.83
2022-10-22T13:37:20.444Z,12.79
2022-10-22T13:40:30.065Z,12.68
2022-10-22T13:43:36.567Z,12.51
2022-10-22T13:46:43.902Z,12.38
2022-10-22T13:49:50.444Z,12.30
2022-10-22T13:52:58.322Z,12.24
2022-10-22T13:56:07.623Z,12.16
2022-10-22T13:59:13.234Z,12.08
2022-10-22T14:02:24.736Z,12.03
2022-10-22T14:05:30.717Z,11.93
2022-10-22T14:08:37.272Z,11.86
2022-10-22T14:11:45.817Z,11.79
2022-10-22T14:14:52.245Z,11.72
2022-10-22T14:18:00.462Z,11.62
2022-10-22T14:21:10.071Z,11.52
2022-10-22T14:24:15.694Z,11.46
2022-10-22T14:27:25.098Z,11.43
2022-10-22T14:30:33.041Z,11.32
2022-10-22T14:33:39.500Z,11.38
2022-10-22T14:36:46.579Z,11.39
2022-10-22T14:40:03.269Z,11.32
2022-10-22T14:43:14.021Z,11.29
2022-10-22T14:46:21.683Z,11.30
2022-10-22T14:49:27.284Z,11.29
2022-10-22T14:52:33.753Z,11.28
2022-10-22T14:55:39.477Z,11.24
2022-10-22T14:58:49.110Z,11.22
2022-10-22T15:01:54.711Z,11.23
2022-10-22T15:05:01.203Z,11.22
2022-10-22T15:08:07.827Z,11.20
2022-10-22T15:11:15.707Z,11.23
2022-10-22T15:14:24.249Z,11.22
2022-10-22T15:17:31.008Z,11.23
2022-10-22T15:20:37.177Z,11.21
2022-10-22T15:23:43.658Z,11.18
2022-10-22T15:26:51.070Z,11.18
2022-10-22T15:33:11.597Z,11.17
2022-10-22T15:36:19.484Z,11.22
2022-10-22T15:39:25.974Z,11.29
2022-10-22T15:42:32.395Z,11.27
2022-10-22T15:45:41.098Z,11.30
2022-10-22T15:48:48.272Z,11.25
2022-10-22T15:51:53.907Z,11.21
2022-10-22T15:55:03.908Z,11.21
2022-10-22T15:58:09.797Z,11.18
2022-10-22T16:01:19.253Z,11.16
2022-10-22T16:04:24.891Z,11.13
2022-10-22T16:07:32.774Z,11.10
2022-10-22T16:10:38.367Z,11.12
2022-10-22T16:13:44.804Z,11.13
2022-10-22T16:16:55.695Z,11.20
2022-10-22T16:20:03.349Z,11.14
2022-10-22T16:23:09.159Z,11.14
2022-10-22T16:26:16.048Z,11.15
2022-10-22T16:29:22.035Z,11.19
2022-10-22T16:32:31.322Z,11.13
2022-10-22T16:35:37.395Z,11.08
2022-10-22T16:38:44.174Z,11.05
2022-10-22T16:41:49.763Z,11.04
2022-10-22T16:44:56.199Z,11.03
2022-10-22T16:48:06.247Z,11.05
2022-10-22T16:51:15.613Z,11.05
2022-10-22T16:54:22.034Z,10.95
2022-10-22T16:57:28.906Z,10.92
2022-10-22T17:00:34.565Z,10.90
2022-10-22T17:03:44.283Z,10.90
2022-10-22T17:06:50.109Z,10.94
2022-10-22T17:09:57.907Z,10.99
2022-10-22T17:13:04.181Z,11.00
2022-10-22T17:16:15.783Z,10.98
2022-10-22T17:19:24.803Z,11.02
2022-10-22T17:22:31.721Z,10.98
2022-10-22T17:25:43.869Z,11.00
2022-10-22T17:28:50.948Z,10.95
2022-10-22T17:31:56.742Z,10.96
2022-10-22T17:35:08.958Z,10.97
2022-10-22T17:38:16.026Z,11.00
2022-10-22T17:41:24.111Z,11.11
2022-10-22T17:44:29.699Z,11.11
2022-10-22T17:47:36.259Z,11.09
2022-10-22T17:50:49.642Z,11.11
2022-10-22T17:53:58.735Z,11.08
2022-10-22T17:57:06.768Z,11.10
2022-10-22T18:00:16.410Z,11.10
2022-10-22T18:03:22.087Z,11.14
2022-10-22T18:06:31.915Z,11.15
2022-10-22T18:09:37.574Z,11.08
2022-10-22T18:12:44.109Z,11.06
2022-10-22T18:15:57.421Z,11.07
2022-10-22T18:19:04.607Z,11.03
2022-10-22T18:22:12.984Z,11.03
2022-10-22T18:25:19.424Z,10.98
2022-10-22T18:28:25.140Z,10.99
2022-10-22T18:31:31.963Z,11.03
2022-10-22T18:34:38.132Z,11.04
2022-10-22T18:37:47.643Z,11.03
2022-10-22T18:40:53.567Z,11.05
2022-10-22T18:44:03.853Z,11.08
2022-10-22T18:47:09.514Z,11.10
2022-10-22T18:50:16.198Z,11.09
2022-10-22T18:53:24.755Z,11.10
2022-10-22T18:56:31.215Z,11.13
2022-10-22T18:59:37.046Z,11.14
2022-10-22T19:02:44.122Z,11.15
2022-10-22T19:05:52.566Z,11.19
2022-10-22T19:09:04.643Z,11.22
2022-10-22T19:12:10.797Z,11.25
2022-10-22T19:15:17.627Z,11.32
2022-10-22T19:18:23.330Z,11.34
2022-10-22T19:21:30.276Z,11.33
2022-10-22T19:24:38.752Z,11.34
2022-10-22T19:27:45.480Z,11.33
2022-10-22T19:30:51.507Z,11.32
2022-10-22T19:33:58.230Z,11.34
2022-10-22T19:37:04.201Z,11.44
2022-10-22T19:40:16.615Z,11.45
2022-10-22T19:43:22.193Z,11.44
2022-10-22T19:46:30.374Z,11.45
2022-10-22T19:49:37.005Z,11.46
2022-10-22T19:52:43.939Z,11.47
2022-10-22T19:55:52.686Z,11.53
2022-10-22T19:59:00.198Z,11.54
2022-10-22T20:02:08.168Z,11.52
2022-10-22T20:05:15.024Z,11.53
2022-10-22T20:08:20.621Z,11.54
2022-10-22T20:11:31.640Z,11.53
2022-10-22T20:14:37.642Z,11.55
2022-10-22T20:17:44.282Z,11.62
2022-10-22T20:20:50.174Z,11.67
2022-10-22T20:23:57.876Z,11.70
2022-10-22T20:27:06.543Z,11.76
2022-10-22T20:30:13.886Z,11.78
2022-10-22T20:33:19.650Z,11.81
2022-10-22T20:36:27.185Z,11.81
2022-10-22T20:39:32.899Z,11.85
2022-10-22T20:42:42.389Z,11.87
2022-10-22T20:45:48.220Z,11.84
2022-10-22T20:48:56.893Z,11.91
2022-10-22T20:52:03.276Z,11.95
2022-10-22T20:55:10.228Z,12.03
2022-10-22T20:58:20.697Z,12.07
2022-10-22T21:01:28.825Z,12.09
2022-10-22T21:04:35.337Z,12.11
2022-10-22T21:07:42.106Z,12.17
2022-10-22T21:10:49.669Z,12.16
2022-10-22T21:13:58.881Z,12.19
2022-10-22T21:17:08.245Z,12.15
2022-10-22T21:20:14.758Z,12.14
2022-10-22T21:23:20.315Z,12.12
2022-10-22T21:26:27.659Z,12.09
2022-10-22T21:29:36.536Z,12.08
2022-10-22T21:32:43.182Z,12.08
2022-10-22T21:35:54.515Z,12.10
2022-10-22T21:39:00.984Z,12.07
2022-10-22T21:42:07.916Z,12.07
2022-10-22T21:45:19.953Z,12.08
2022-10-22T21:48:27.781Z,12.12
2022-10-22T21:51:38.286Z,12.14
2022-10-22T21:54:43.891Z,12.12
2022-10-22T21:57:50.367Z,12.13
2022-10-22T22:01:05.325Z,12.16
2022-10-22T22:04:11.896Z,12.16
2022-10-22T22:07:17.678Z,12.16
2022-10-22T22:10:25.444Z,12.17
2022-10-22T22:13:31.249Z,12.17
2022-10-22T22:16:40.656Z,12.20
2022-10-22T22:19:46.289Z,12.18
2022-10-22T22:22:52.769Z,12.18
2022-10-22T22:26:04.082Z,12.15
2022-10-22T22:29:10.610Z,12.16
2022-10-22T22:32:18.920Z,12.14
2022-10-22T22:35:25.471Z,12.09
2022-10-22T22:38:31.460Z,12.13
2022-10-22T22:41:38.043Z,12.15
2022-10-22T22:44:43.831Z,12.12
2022-10-22T22:47:53.090Z,12.12
2022-10-22T22:51:00.184Z,12.11
2022-10-22T22:54:08.929Z,12.07
2022-10-22T22:57:14.731Z,12.01
2022-10-22T23:00:21.441Z,12.00
2022-10-22T23:03:30.082Z,12.01
2022-10-22T23:06:39.065Z,12.04
2022-10-22T23:09:44.691Z,12.05
2022-10-22T23:12:51.119Z,12.06
2022-10-22T23:15:57.074Z,12.01
2022-10-22T23:19:07.393Z,12.02
2022-10-22T23:22:13.265Z,12.05
2022-10-22T23:25:19.731Z,12.09
2022-10-22T23:28:26.293Z,12.12
2022-10-22T23:31:32.947Z,12.06
2022-10-22T23:34:41.563Z,12.08
2022-10-22T23:37:48.052Z,12.06
2022-10-22T23:40:57.433Z,12.10
2022-10-22T23:44:03.907Z,12.07
2022-10-22T23:47:09.771Z,12.04
2022-10-22T23:50:19.085Z,12.08
2022-10-22T23:53:24.705Z,12.04
2022-10-22T23:56:32.092Z,12.02
2022-10-22T23:59:38.086Z,12.02
